createdAt,value
2022-11-05T00:01:52.752Z,97990.06
2022-11-05T00:04:37.873Z,97996.09
2022-11-05T00:07:32.097Z,97987.88
2022-11-05T00:10:03.537Z,97993.88
2022-11-05T00:12:48.849Z,97994.03
2022-11-05T00:15:33.934Z,97996.78
2022-11-05T00:18:00.535Z,97999.81
2022-11-05T00:20:27.165Z,98002.75
2022-11-05T00:23:24.797Z,98001.28
2022-11-05T00:26:02.334Z,98013.63
2022-11-05T00:28:29.861Z,98011.28
2022-11-05T00:31:10.352Z,98018.31
2022-11-05T00:33:37.876Z,98012.13
2022-11-05T00:36:05.959Z,98027.97
2022-11-05T00:38:32.794Z,98021.06
2022-11-05T00:40:59.378Z,98022.09
2022-11-05T00:43:44.803Z,98026.13
2022-11-05T00:46:12.141Z,98023.25
2022-11-05T00:48:57.624Z,98029.13
2022-11-05T00:51:24.199Z,98032.03
2022-11-05T00:53:51.006Z,98032.28
2022-11-05T00:56:17.596Z,98033.66
2022-11-05T00:58:44.525Z,98036.09
2022-11-05T01:01:11.898Z,98039.63
2022-11-05T01:03:39.889Z,98046.56
2022-11-05T01:06:12.950Z,98054.56
2022-11-05T01:08:40.780Z,98039.94
2022-11-05T01:11:35.829Z,98051.81
2022-11-05T01:14:05.135Z,98057.50
2022-11-05T01:16:32.938Z,98057.84
2022-11-05T01:19:01.004Z,98060.00
2022-11-05T01:21:27.581Z,98063.50
2022-11-05T01:23:55.209Z,98065.81
2022-11-05T01:26:21.861Z,98070.53
2022-11-05T01:28:53.808Z,98064.84
2022-11-05T01:31:22.066Z,98066.31
2022-11-05T01:33:49.007Z,98063.28
2022-11-05T01:36:15.590Z,98066.78
2022-11-05T01:38:42.210Z,98074.09
2022-11-05T01:41:08.856Z,98071.16
2022-11-05T01:43:54.435Z,98078.50
2022-11-05T01:46:29.556Z,98079.22
2022-11-05T01:49:02.776Z,98073.03
2022-11-05T01:51:29.857Z,98079.56
2022-11-05T01:54:05.637Z,98083.66
2022-11-05T01:56:37.897Z,98077.53
2022-11-05T01:59:31.450Z,98087.63
2022-11-05T02:01:58.470Z,98087.63
2022-11-05T02:04:35.542Z,98088.38
2022-11-05T02:07:03.330Z,98094.34
2022-11-05T02:09:35.199Z,98091.94
2022-11-05T02:12:02.117Z,98089.53
2022-11-05T02:14:28.671Z,98092.47
2022-11-05T02:17:09.815Z,98087.69
2022-11-05T02:20:10.954Z,98090.56
2022-11-05T02:22:46.461Z,98084.75
2022-11-05T02:25:37.969Z,98087.69
2022-11-05T02:28:45.903Z,98094.28
2022-11-05T02:31:36.335Z,98098.41
2022-11-05T02:34:14.565Z,98096.19
2022-11-05T02:36:46.729Z,98100.13
2022-11-05T02:39:16.165Z,98102.44
2022-11-05T02:41:54.735Z,98106.81
2022-11-05T02:44:35.600Z,98104.94
2022-11-05T02:47:17.896Z,98108.03
2022-11-05T02:50:09.925Z,98111.69
2022-11-05T02:52:40.122Z,98109.34
2022-11-05T02:55:13.653Z,98102.34
2022-11-05T02:57:44.588Z,98108.03
2022-11-05T03:00:50.921Z,98109.91
2022-11-05T03:03:26.408Z,98112.31
2022-11-05T03:06:10.676Z,98111.31
2022-11-05T03:08:53.547Z,98106.25
2022-11-05T03:11:23.079Z,98111.31
2022-11-05T03:14:07.884Z,98115.91
2022-11-05T03:16:42.827Z,98115.06
2022-11-05T03:19:27.662Z,98114.44
2022-11-05T03:21:58.978Z,98122.09
2022-11-05T03:24:33.616Z,98127.34
2022-11-05T03:27:03.521Z,98124.13
2022-11-05T03:29:37.611Z,98128.91
2022-11-05T03:32:05.390Z,98134.78
2022-11-05T03:34:35.853Z,98129.13
2022-11-05T03:37:03.760Z,98131.84
2022-11-05T03:39:31.571Z,98137.47
2022-11-05T03:41:59.020Z,98140.69
2022-11-05T03:44:29.465Z,98138.00
2022-11-05T03:47:01.875Z,98143.72
2022-11-05T03:49:33.018Z,98149.63
2022-11-05T03:52:17.949Z,98145.03
2022-11-05T03:54:44.624Z,98156.66
2022-11-05T03:57:15.612Z,98154.53
2022-11-05T03:59:44.827Z,98162.72
2022-11-05T04:02:13.589Z,98161.78
2022-11-05T04:04:40.396Z,98165.25
2022-11-05T04:07:25.596Z,98169.16
2022-11-05T04:10:10.694Z,98174.16
2022-11-05T04:12:55.870Z,98169.66
2022-11-05T04:15:22.469Z,98168.69
2022-11-05T04:17:48.999Z,98175.91
2022-11-05T04:20:34.249Z,98176.72
2022-11-05T04:23:21.721Z,98176.47
2022-11-05T04:25:48.329Z,98177.41
2022-11-05T04:28:15.108Z,98174.72
2022-11-05T04:30:44.190Z,98181.88
2022-11-05T04:33:15.783Z,98196.16
2022-11-05T04:35:44.798Z,98189.94
2022-11-05T04:38:18.952Z,98196.81
2022-11-05T04:40:46.651Z,98195.72
2022-11-05T04:43:19.053Z,98198.59
2022-11-05T04:45:46.144Z,98203.16
2022-11-05T04:48:13.158Z,98196.41
2022-11-05T04:50:39.918Z,98195.63
2022-11-05T04:53:06.456Z,98203.34
2022-11-05T04:55:33.021Z,98198.78
2022-11-05T04:57:59.681Z,98202.53
2022-11-05T05:00:26.594Z,98214.91
2022-11-05T05:02:53.394Z,98208.31
2022-11-05T05:05:21.237Z,98213.66
2022-11-05T05:07:47.848Z,98208.78
2022-11-05T05:10:14.386Z,98205.81
2022-11-05T05:12:41.120Z,98218.91
2022-11-05T05:15:07.949Z,98213.28
2022-11-05T05:17:34.493Z,98217.38
2022-11-05T05:20:19.826Z,98233.63
2022-11-05T05:22:54.449Z,98227.19
2022-11-05T05:25:21.933Z,98231.94
2022-11-05T05:27:48.505Z,98233.28
2022-11-05T05:30:15.158Z,98234.22
2022-11-05T05:32:41.763Z,98240.75
2022-11-05T05:35:08.916Z,98242.66
2022-11-05T05:37:35.451Z,98248.72
2022-11-05T05:40:02.008Z,98248.63
2022-11-05T05:42:28.606Z,98255.16
2022-11-05T05:44:55.189Z,98254.94
2022-11-05T05:47:21.820Z,98258.47
2022-11-05T05:49:48.395Z,98251.81
2022-11-05T05:52:14.979Z,98249.19
2022-11-05T05:54:43.090Z,98262.53
2022-11-05T05:57:10.133Z,98256.25
2022-11-05T05:59:36.778Z,98255.50
2022-11-05T06:02:03.665Z,98263.00
2022-11-05T06:04:30.344Z,98263.97
2022-11-05T06:06:57.017Z,98261.97
2022-11-05T06:09:23.677Z,98264.13
2022-11-05T06:11:50.240Z,98274.34
2022-11-05T06:14:16.888Z,98279.47
2022-11-05T06:16:43.614Z,98280.88
2022-11-05T06:19:10.375Z,98285.06
2022-11-05T06:21:36.938Z,98289.56
2022-11-05T06:24:03.645Z,98290.97
2022-11-05T06:26:30.442Z,98291.13
2022-11-05T06:28:57.270Z,98296.59
2022-11-05T06:31:24.028Z,98307.47
2022-11-05T06:33:51.039Z,98312.63
2022-11-05T06:36:18.976Z,98315.13
2022-11-05T06:38:45.802Z,98316.81
2022-11-05T06:41:12.375Z,98313.66
2022-11-05T06:43:39.200Z,98317.66
2022-11-05T06:46:05.816Z,98319.47
2022-11-05T06:48:32.545Z,98319.25
2022-11-05T06:50:59.191Z,98322.03
2022-11-05T06:53:25.833Z,98331.09
2022-11-05T06:55:52.399Z,98339.88
2022-11-05T06:58:18.955Z,98341.09
2022-11-05T07:00:45.698Z,98345.19
2022-11-05T07:03:13.497Z,98353.47
2022-11-05T07:05:45.114Z,98359.00
2022-11-05T07:08:11.778Z,98363.97
2022-11-05T07:10:38.477Z,98370.84
2022-11-05T07:13:08.167Z,98370.38
2022-11-05T07:15:35.777Z,98375.94
2022-11-05T07:18:02.671Z,98379.84
2022-11-05T07:20:33.528Z,98388.13
2022-11-05T07:23:10.914Z,98394.34
2022-11-05T07:25:38.191Z,98395.41
2022-11-05T07:28:05.406Z,98400.75
2022-11-05T07:30:32.528Z,98412.38
2022-11-05T07:33:00.120Z,98412.72
2022-11-05T07:35:27.232Z,98409.78
2022-11-05T07:37:54.427Z,98410.47
2022-11-05T07:40:22.808Z,98410.47
2022-11-05T07:42:53.411Z,98410.47
2022-11-05T07:45:20.827Z,98411.00
2022-11-05T07:47:54.249Z,98425.38
2022-11-05T07:50:24.952Z,98421.09
2022-11-05T07:52:52.178Z,98430.00
2022-11-05T07:55:19.773Z,98432.53
2022-11-05T07:57:50.731Z,98433.13
2022-11-05T08:00:20.662Z,98428.25
2022-11-05T08:03:04.008Z,98434.78
2022-11-05T08:05:40.727Z,98442.00
2022-11-05T08:08:08.549Z,98441.16
2022-11-05T08:10:36.578Z,98441.97
2022-11-05T08:13:03.338Z,98444.00
2022-11-05T08:15:33.398Z,98448.06
2022-11-05T08:18:06.949Z,98449.75
2022-11-05T08:20:34.407Z,98450.75
2022-11-05T08:23:01.181Z,98460.56
2022-11-05T08:25:27.798Z,98452.19
2022-11-05T08:27:59.870Z,98466.03
2022-11-05T08:30:26.645Z,98474.13
2022-11-05T08:33:00.409Z,98472.63
2022-11-05T08:35:34.936Z,98472.50
2022-11-05T08:38:03.287Z,98479.22
2022-11-05T08:40:34.659Z,98487.56
2022-11-05T08:43:08.029Z,98484.94
2022-11-05T08:45:38.647Z,98484.22
2022-11-05T08:48:07.704Z,98482.38
2022-11-05T08:50:37.107Z,98489.81
2022-11-05T08:53:05.945Z,98489.63
2022-11-05T08:55:34.753Z,98487.53
2022-11-05T08:58:03.360Z,98490.50
2022-11-05T09:00:33.302Z,98502.72
2022-11-05T09:03:01.123Z,98504.00
2022-11-05T09:05:30.159Z,98504.41
2022-11-05T09:08:00.824Z,98507.16
2022-11-05T09:10:29.631Z,98510.13
2022-11-05T09:12:56.510Z,98521.78
2022-11-05T09:15:27.918Z,98518.22
2022-11-05T09:17:56.947Z,98515.09
2022-11-05T09:20:23.756Z,98525.47
2022-11-05T09:22:50.449Z,98527.19
2022-11-05T09:25:18.035Z,98525.78
2022-11-05T09:27:44.954Z,98527.44
2022-11-05T09:30:12.945Z,98526.78
2022-11-05T09:32:39.584Z,98534.91
2022-11-05T09:35:06.971Z,98528.25
2022-11-05T09:37:35.186Z,98531.56
2022-11-05T09:40:01.738Z,98530.50
2022-11-05T09:42:37.779Z,98532.16
2022-11-05T09:45:24.963Z,98526.19
2022-11-05T09:48:08.681Z,98533.41
2022-11-05T09:50:39.509Z,98525.91
2022-11-05T09:53:06.374Z,98528.50
2022-11-05T09:55:38.890Z,98533.78
2022-11-05T09:58:44.966Z,98536.78
2022-11-05T10:01:15.291Z,98537.84
2022-11-05T10:03:48.136Z,98544.91
2022-11-05T10:06:21.206Z,98550.13
2022-11-05T10:09:12.140Z,98559.00
2022-11-05T10:11:44.318Z,98552.31
2022-11-05T10:14:19.431Z,98564.56
2022-11-05T10:16:51.363Z,98568.63
2022-11-05T10:19:24.317Z,98565.38
2022-11-05T10:22:10.694Z,98569.09
2022-11-05T10:24:45.751Z,98578.44
2022-11-05T10:27:19.345Z,98576.41
2022-11-05T10:29:47.050Z,98579.69
2022-11-05T10:32:28.949Z,98588.59
2022-11-05T10:35:00.262Z,98584.56
2022-11-05T10:37:27.562Z,98595.28
2022-11-05T10:39:54.122Z,98584.53
2022-11-05T10:42:29.771Z,98588.41
2022-11-05T10:45:17.532Z,98590.81
2022-11-05T10:47:50.193Z,98586.31
2022-11-05T10:50:19.877Z,98586.94
2022-11-05T10:52:52.369Z,98595.69
2022-11-05T10:55:24.670Z,98591.84
2022-11-05T10:57:51.305Z,98595.03
2022-11-05T11:00:19.736Z,98597.06
2022-11-05T11:02:57.455Z,98598.75
2022-11-05T11:05:32.285Z,98605.63
2022-11-05T11:08:10.963Z,98597.13
2022-11-05T11:11:06.375Z,98599.69
2022-11-05T11:13:52.143Z,98603.81
2022-11-05T11:16:24.409Z,98604.13
2022-11-05T11:18:56.429Z,98606.22
2022-11-05T11:21:23.622Z,98604.72
2022-11-05T11:24:04.883Z,98600.47
2022-11-05T11:26:33.803Z,98606.16
2022-11-05T11:29:25.166Z,98603.69
2022-11-05T11:31:54.677Z,98605.97
2022-11-05T11:34:30.021Z,98608.03
2022-11-05T11:37:05.520Z,98611.75
2022-11-05T11:39:32.621Z,98615.63
2022-11-05T11:42:02.913Z,98610.03
2022-11-05T11:44:41.368Z,98608.75
2022-11-05T11:47:13.978Z,98609.47
2022-11-05T11:49:44.868Z,98615.22
2022-11-05T11:52:14.252Z,98616.41
2022-11-05T11:54:40.845Z,98618.66
2022-11-05T11:57:28.491Z,98610.84
2022-11-05T12:00:12.713Z,98611.22
2022-11-05T12:03:02.206Z,98611.69
2022-11-05T12:05:34.481Z,98612.78
2022-11-05T12:08:19.796Z,98609.81
2022-11-05T12:11:06.765Z,98602.34
2022-11-05T12:13:33.371Z,98607.59
2022-11-05T12:16:21.390Z,98606.22
2022-11-05T12:19:42.391Z,98602.34
2022-11-05T12:22:38.210Z,98598.81
2022-11-05T12:25:27.955Z,98598.22
2022-11-05T12:28:09.822Z,98592.31
2022-11-05T12:30:51.555Z,98590.03
2022-11-05T12:33:30.147Z,98587.72
2022-11-05T12:36:32.274Z,98587.00
2022-11-05T12:39:15.339Z,98590.44
2022-11-05T12:42:15.668Z,98597.72
2022-11-05T12:44:53.223Z,98600.69
2022-11-05T12:47:25.661Z,98593.56
2022-11-05T12:49:52.159Z,98597.78
2022-11-05T12:52:36.778Z,98602.13
2022-11-05T12:55:16.840Z,98602.34
2022-11-05T12:57:45.969Z,98607.63
2022-11-05T13:00:23.905Z,98609.50
2022-11-05T13:02:56.924Z,98608.63
2022-11-05T13:05:35.314Z,98603.69
2022-11-05T13:08:07.669Z,98603.72
2022-11-05T13:10:44.256Z,98607.28
2022-11-05T13:13:26.689Z,98603.91
2022-11-05T13:15:56.521Z,98603.88
2022-11-05T13:18:46.952Z,98611.72
2022-11-05T13:21:15.213Z,98609.34
2022-11-05T13:23:46.822Z,98606.19
2022-11-05T13:26:48.646Z,98610.53
2022-11-05T13:29:48.944Z,98613.63
2022-11-05T13:32:24.597Z,98613.72
2022-11-05T13:35:15.676Z,98613.50
2022-11-05T13:38:04.064Z,98618.56
2022-11-05T13:40:52.217Z,98611.06
2022-11-05T13:43:41.003Z,98609.97
2022-11-05T13:46:07.841Z,98616.44
2022-11-05T13:48:51.989Z,98614.28
2022-11-05T13:51:40.307Z,98609.47
2022-11-05T13:54:44.813Z,98610.69
2022-11-05T13:57:11.371Z,98615.53
2022-11-05T13:59:43.960Z,98614.00
2022-11-05T14:02:15.578Z,98620.63
2022-11-05T14:04:47.355Z,98620.19
2022-11-05T14:07:21.170Z,98623.81
2022-11-05T14:09:53.899Z,98618.38
2022-11-05T14:12:27.839Z,98616.16
2022-11-05T14:14:59.671Z,98630.31
2022-11-05T14:17:31.430Z,98626.22
2022-11-05T14:20:01.007Z,98632.44
2022-11-05T14:22:36.986Z,98631.66
2022-11-05T14:25:18.798Z,98618.41
2022-11-05T14:27:47.734Z,98623.28
2022-11-05T14:30:41.137Z,98628.72
2022-11-05T14:33:24.460Z,98621.78
2022-11-05T14:35:52.298Z,98632.81
2022-11-05T14:38:26.749Z,98627.38
2022-11-05T14:41:00.376Z,98633.66
2022-11-05T14:43:27.998Z,98635.97
2022-11-05T14:46:01.818Z,98646.50
2022-11-05T14:48:35.274Z,98647.28
2022-11-05T14:51:18.428Z,98643.84
2022-11-05T14:53:45.067Z,98651.13
2022-11-05T14:56:14.511Z,98647.25
2022-11-05T14:58:42.853Z,98647.59
2022-11-05T15:01:13.329Z,98655.19
2022-11-05T15:03:45.392Z,98658.72
2022-11-05T15:06:33.399Z,98655.69
2022-11-05T15:09:18.572Z,98667.09
2022-11-05T15:12:00.382Z,98662.66
2022-11-05T15:14:38.136Z,98655.34
2022-11-05T15:17:23.286Z,98660.66
2022-11-05T15:19:52.321Z,98658.88
2022-11-05T15:22:27.177Z,98657.94
2022-11-05T15:24:55.838Z,98657.50
2022-11-05T15:27:58.920Z,98664.72
2022-11-05T15:30:26.608Z,98662.66
2022-11-05T15:32:53.746Z,98658.00
2022-11-05T15:35:26.866Z,98667.28
2022-11-05T15:38:01.412Z,98673.97
2022-11-05T15:40:31.553Z,98665.22
2022-11-05T15:43:17.332Z,98660.53
2022-11-05T15:45:57.759Z,98658.81
2022-11-05T15:48:24.707Z,98658.03
2022-11-05T15:50:51.308Z,98664.22
2022-11-05T15:53:47.361Z,98660.00
2022-11-05T15:56:18.745Z,98659.16
2022-11-05T15:58:52.428Z,98663.25
2022-11-05T16:01:37.473Z,98660.81
2022-11-05T16:04:25.233Z,98662.31
2022-11-05T16:06:55.016Z,98663.84
2022-11-05T16:09:31.448Z,98663.75
2022-11-05T16:12:30.600Z,98665.88
2022-11-05T16:15:09.368Z,98675.94
2022-11-05T16:17:50.493Z,98679.25
2022-11-05T16:20:47.345Z,98680.91
2022-11-05T16:23:41.852Z,98677.31
2022-11-05T16:26:55.817Z,98678.06
2022-11-05T16:29:18.442Z,98678.88
2022-11-05T16:31:50.057Z,98686.50
2022-11-05T16:34:45.595Z,98695.84
2022-11-05T16:37:13.997Z,98694.00
2022-11-05T16:39:40.661Z,98697.69
2022-11-05T16:42:22.621Z,98713.63
2022-11-05T16:44:50.278Z,98714.16
2022-11-05T16:47:17.680Z,98714.16
2022-11-05T16:49:44.321Z,98716.78
2022-11-05T16:52:12.046Z,98718.28
2022-11-05T16:54:39.009Z,98714.53
2022-11-05T16:57:23.748Z,98708.81
2022-11-05T16:59:50.408Z,98719.00
2022-11-05T17:02:17.244Z,98716.94
2022-11-05T17:04:47.708Z,98717.16
2022-11-05T17:07:14.301Z,98720.84
2022-11-05T17:09:40.905Z,98721.22
2022-11-05T17:12:07.524Z,98720.50
2022-11-05T17:14:34.113Z,98720.13
2022-11-05T17:17:01.526Z,98715.28
2022-11-05T17:19:28.135Z,98718.28
2022-11-05T17:21:54.925Z,98716.75
2022-11-05T17:24:21.699Z,98725.25
2022-11-05T17:26:48.211Z,98728.06
2022-11-05T17:29:15.097Z,98731.22
2022-11-05T17:31:42.218Z,98741.94
2022-11-05T17:34:09.962Z,98735.78
2022-11-05T17:36:36.657Z,98734.28
2022-11-05T17:39:03.306Z,98737.75
2022-11-05T17:41:29.899Z,98737.38
2022-11-05T17:43:57.236Z,98734.22
2022-11-05T17:46:24.598Z,98728.97
2022-11-05T17:48:51.190Z,98735.09
2022-11-05T17:51:19.243Z,98736.13
2022-11-05T17:53:46.028Z,98737.63
2022-11-05T17:56:13.731Z,98739.88
2022-11-05T17:58:40.886Z,98742.47
2022-11-05T18:01:08.631Z,98745.56
2022-11-05T18:03:35.375Z,98759.09
2022-11-05T18:06:06.248Z,98753.81
2022-11-05T18:08:33.213Z,98754.91
2022-11-05T18:10:59.818Z,98758.56
2022-11-05T18:13:26.425Z,98764.84
2022-11-05T18:15:54.017Z,98767.78
2022-11-05T18:18:21.793Z,98771.50
2022-11-05T18:20:48.468Z,98777.91
2022-11-05T18:23:15.424Z,98781.34
2022-11-05T18:25:42.724Z,98777.91
2022-11-05T18:28:09.977Z,98778.50
2022-11-05T18:30:38.681Z,98773.75
2022-11-05T18:33:05.653Z,98781.06
2022-11-05T18:35:32.404Z,98776.00
2022-11-05T18:37:59.157Z,98779.44
2022-11-05T18:40:25.734Z,98772.19
2022-11-05T18:42:52.393Z,98769.41
2022-11-05T18:45:20.283Z,98771.03
2022-11-05T18:47:49.647Z,98771.22
2022-11-05T18:50:16.658Z,98767.38
2022-11-05T18:52:44.084Z,98770.81
2022-11-05T18:55:10.819Z,98769.34
2022-11-05T18:57:39.122Z,98762.72
2022-11-05T19:00:06.487Z,98769.91
2022-11-05T19:02:33.658Z,98772.66
2022-11-05T19:05:27.511Z,98758.59
2022-11-05T19:07:47.613Z,98765.84
2022-11-05T19:10:14.150Z,98767.31
2022-11-05T19:12:41.423Z,98772.13
2022-11-05T19:15:08.848Z,98770.16
2022-11-05T19:17:35.897Z,98761.22
2022-11-05T19:20:03.222Z,98760.97
2022-11-05T19:22:29.918Z,98766.16
2022-11-05T19:24:56.526Z,98760.22
2022-11-05T19:27:23.335Z,98762.72
2022-11-05T19:29:49.986Z,98766.25
2022-11-05T19:32:16.708Z,98764.66
2022-11-05T19:34:43.248Z,98762.09
2022-11-05T19:37:09.881Z,98762.25
2022-11-05T19:39:36.565Z,98756.34
2022-11-05T19:42:03.993Z,98760.81
2022-11-05T19:44:31.083Z,98761.91
2022-11-05T19:46:57.788Z,98758.59
2022-11-05T19:49:24.426Z,98771.50
2022-11-05T19:51:51.119Z,98760.41
2022-11-05T19:54:18.732Z,98758.19
2022-11-05T19:56:45.734Z,98762.94
2022-11-05T19:59:12.852Z,98769.41
2022-11-05T20:01:39.503Z,98764.69
2022-11-05T20:04:06.265Z,98759.81
2022-11-05T20:06:38.744Z,98755.63
2022-11-05T20:09:21.710Z,98762.84
2022-11-05T20:11:53.844Z,98778.69
2022-11-05T20:14:20.446Z,98779.75
2022-11-05T20:16:47.138Z,98779.56
2022-11-05T20:19:16.580Z,98785.50
2022-11-05T20:21:43.407Z,98787.88
2022-11-05T20:24:18.845Z,98792.38
2022-11-05T20:26:51.460Z,98800.56
2022-11-05T20:29:18.121Z,98794.63
2022-11-05T20:31:44.698Z,98794.28
2022-11-05T20:34:11.870Z,98794.28
2022-11-05T20:36:39.190Z,98796.66
2022-11-05T20:39:06.019Z,98799.22
2022-11-05T20:41:33.573Z,98800.19
2022-11-05T20:44:00.254Z,98801.09
2022-11-05T20:46:26.891Z,98794.28
2022-11-05T20:48:53.932Z,98792.38
2022-11-05T20:51:22.226Z,98781.88
2022-11-05T20:53:49.044Z,98793.13
2022-11-05T20:56:22.561Z,98789.75
2022-11-05T20:58:49.774Z,98796.19
2022-11-05T21:01:16.866Z,98799.56
2022-11-05T21:03:47.647Z,98798.28
2022-11-05T21:06:15.095Z,98798.63
2022-11-05T21:08:41.770Z,98799.50
2022-11-05T21:11:08.840Z,98795.09
2022-11-05T21:13:35.959Z,98788.75
2022-11-05T21:16:05.362Z,98790.31
2022-11-05T21:18:33.917Z,98781.78
2022-11-05T21:21:09.690Z,98787.66
2022-11-05T21:23:36.381Z,98790.09
2022-11-05T21:26:08.447Z,98791.91
2022-11-05T21:28:39.500Z,98793.47
2022-11-05T21:31:07.750Z,98790.38
2022-11-05T21:33:34.553Z,98788.53
2022-11-05T21:36:09.616Z,98791.44
2022-11-05T21:38:36.927Z,98788.50
2022-11-05T21:41:04.442Z,98781.75
2022-11-05T21:43:31.424Z,98784.00
2022-11-05T21:46:01.304Z,98787.50
2022-11-05T21:48:27.833Z,98784.72
2022-11-05T21:51:13.170Z,98776.78
2022-11-05T21:53:58.343Z,98785.31
2022-11-05T21:56:45.576Z,98783.09
2022-11-05T21:59:33.674Z,98781.69
2022-11-05T22:02:01.621Z,98782.88
2022-11-05T22:04:30.262Z,98783.72
2022-11-05T22:06:57.108Z,98780.75
2022-11-05T22:09:24.597Z,98780.00
2022-11-05T22:11:51.348Z,98773.06
2022-11-05T22:14:17.950Z,98772.50
2022-11-05T22:16:44.614Z,98778.97
2022-11-05T22:19:11.416Z,98780.81
2022-11-05T22:21:38.245Z,98783.47
2022-11-05T22:24:05.773Z,98781.06
2022-11-05T22:26:32.917Z,98779.63
2022-11-05T22:28:59.584Z,98778.84
2022-11-05T22:31:26.709Z,98776.34
2022-11-05T22:33:55.115Z,98776.16
2022-11-05T22:36:21.665Z,98785.19
2022-11-05T22:38:48.427Z,98778.72
2022-11-05T22:41:17.818Z,98773.50
2022-11-05T22:43:45.425Z,98773.59
2022-11-05T22:46:14.362Z,98774.47
2022-11-05T22:48:44.117Z,98768.97
2022-11-05T22:51:13.902Z,98774.16
2022-11-05T22:53:41.540Z,98764.59
2022-11-05T22:56:11.340Z,98767.47
2022-11-05T22:58:38.254Z,98761.59
2022-11-05T23:01:05.856Z,98763.09
2022-11-05T23:03:33.624Z,98761.31
2022-11-05T23:06:01.858Z,98761.75
2022-11-05T23:08:47.157Z,98766.75
2022-11-05T23:11:38.329Z,98759.09
2022-11-05T23:14:10.027Z,98762.06
2022-11-05T23:16:56.701Z,98755.47
2022-11-05T23:19:42.211Z,98753.69
2022-11-05T23:22:39.080Z,98750.16
2022-11-05T23:25:07.436Z,98760.56
2022-11-05T23:27:36.829Z,98750.34
2022-11-05T23:30:07.505Z,98751.81
2022-11-05T23:32:34.167Z,98755.88
2022-11-05T23:35:00.794Z,98749.63
2022-11-05T23:37:49.173Z,98751.41
2022-11-05T23:40:21.840Z,98754.78
2022-11-05T23:43:07.041Z,98745.91
2022-11-05T23:45:52.522Z,98741.97
2022-11-05T23:48:33.576Z,98730.91
2022-11-05T23:51:03.060Z,98728.47
2022-11-05T23:53:33.619Z,98723.38
2022-11-05T23:56:02.304Z,98719.03
2022-11-05T23:58:29.272Z,98727.59
